Time;durP1;ratioP1;P1;durP2;ratioP2;P2;SDS_P1;SDS_P2;PMS_P1;PMS_P2;Temp;Humidity;BMP_temperature;BMP_pressure;BME280_temperature;BME280_humidity;BME280_pressure;Samples;Min_cycle;Max_cycle;Signal;HPM_P1;HPM_P2
2021/06/15 00:00:24;;;;;;;7.80;6.30;;;;;;;19.27;96.49;101097.97;4932332;29;20186;-75
2021/06/15 00:02:50;;;;;;;8.70;6.53;;;;;;;19.30;96.27;101095.38;4918278;29;20186;-75
2021/06/15 00:05:19;;;;;;;9.57;6.78;;;;;;;19.37;96.40;101092.16;4917466;29;20179;-76
2021/06/15 00:07:44;;;;;;;8.65;6.75;;;;;;;19.42;96.34;101097.53;4917368;29;20187;-75
2021/06/15 00:10:19;;;;;;;9.13;6.80;;;;;;;19.22;97.67;101092.59;4901027;29;20285;-75
2021/06/15 00:12:50;;;;;;;11.23;6.97;;;;;;;19.22;97.67;101092.59;4918463;29;20237;-75
2021/06/15 00:15:18;;;;;;;8.50;6.65;;;;;;;19.30;97.56;101105.56;4902371;29;20186;-75
2021/06/15 00:17:49;;;;;;;8.30;6.30;;;;;;;19.13;98.39;101100.00;4934013;29;20178;-75
2021/06/15 00:20:14;;;;;;;7.40;6.65;;;;;;;19.17;99.06;101100.16;4901172;29;20219;-76
2021/06/15 00:22:41;;;;;;;7.93;6.57;;;;;;;19.07;99.06;101100.47;4901651;29;20203;-75
2021/06/15 00:25:12;;;;;;;8.50;6.65;;;;;;;19.13;99.47;101105.50;4917182;29;20234;-75
2021/06/15 00:27:42;;;;;;;8.77;6.60;;;;;;;19.13;99.47;101105.50;4920097;28;20187;-75
2021/06/15 00:30:12;;;;;;;7.80;6.78;;;;;;;18.88;100.00;101123.81;4935783;28;20896;-75
2021/06/15 00:32:40;;;;;;;9.02;6.70;;;;;;;18.85;100.00;101116.19;4952903;28;20218;-75
2021/06/15 00:35:13;;;;;;;8.07;7.28;;;;;;;18.71;100.00;101110.75;4936249;28;20193;-75
2021/06/15 00:37:46;;;;;;;9.75;7.55;;;;;;;18.72;100.00;101114.34;4936571;28;20191;-75
2021/06/15 00:40:15;;;;;;;9.70;7.68;;;;;;;18.61;100.00;101121.22;4919945;28;20206;-75
2021/06/15 00:42:43;;;;;;;10.25;7.70;;;;;;;18.50;100.00;101117.09;4936172;28;20197;-75
2021/06/15 00:45:18;;;;;;;8.90;7.55;;;;;;;18.50;100.00;101117.09;4951849;28;20189;-74
2021/06/15 00:47:52;;;;;;;8.93;8.02;;;;;;;18.46;100.00;101127.09;4952920;28;20726;-74
2021/06/15 00:50:24;;;;;;;9.88;7.57;;;;;;;18.51;100.00;101132.47;4935136;28;20657;-74
2021/06/15 00:52:53;;;;;;;9.40;8.25;;;;;;;18.32;100.00;101131.84;4952557;28;20234;-76
2021/06/15 00:55:22;;;;;;;10.63;8.00;;;;;;;18.11;100.00;101129.03;4920800;28;20192;-76
2021/06/15 00:57:49;;;;;;;8.80;7.78;;;;;;;18.10;100.00;101133.75;4935434;28;20182;-75
2021/06/15 01:00:19;;;;;;;11.07;7.50;;;;;;;18.00;100.00;101138.63;4919238;28;20216;-75
2021/06/15 01:02:47;;;;;;;9.25;6.63;;;;;;;17.95;100.00;101136.81;4936184;28;20952;-75
2021/06/15 01:05:17;;;;;;;9.10;7.00;;;;;;;17.72;100.00;101134.28;4952003;28;20190;-75
2021/06/15 01:07:58;;;;;;;8.52;6.68;;;;;;;17.84;100.00;101140.09;4936859;28;20178;-75
2021/06/15 01:11:04;;;;;;;9.23;6.53;;;;;;;17.99;100.00;101132.31;4918528;28;20190;-78
2021/06/15 01:14:20;;;;;;;8.02;6.57;;;;;;;18.00;100.00;101130.38;4884048;28;20228;-77
2021/06/15 01:16:56;;;;;;;8.77;7.00;;;;;;;17.83;100.00;101128.25;4952096;28;20281;-77
2021/06/15 01:19:55;;;;;;;9.95;6.93;;;;;;;17.76;100.00;101133.38;4922122;28;20225;-76
2021/06/15 01:27:17;;;;;;;;;;;;;;;;;;;;;
2021/06/15 01:34:53;;;;;;;10.23;6.50;;;;;;;17.69;100.00;101134.09;4853621;29;20246;-78
2021/06/15 01:37:40;;;;;;;11.13;6.90;;;;;;;17.80;100.00;101142.63;4800649;29;20694;-75
2021/06/15 01:40:22;;;;;;;11.27;7.22;;;;;;;17.77;100.00;101145.19;4839134;29;20202;-77
2021/06/15 01:43:08;;;;;;;;;;;;;;;;;;;;;
2021/06/15 01:46:00;;;;;;;9.52;6.88;;;;;;;17.54;100.00;115391.59;4939872;28;20542;-78
2021/06/15 01:52:44;;;;;;;9.27;6.55;;;;;;;-138.14;100.00;63448.66;4862669;29;20315;-76
2021/06/15 01:55:11;;;;;;;11.20;6.68;;;;;;;-138.14;nan;63448.66;4883930;29;20283;-75
2021/06/15 01:57:50;;;;;;;10.77;6.40;;;;;;;-138.14;100.00;63448.66;4918872;29;20184;-75
2021/06/15 02:00:20;;;;;;;11.07;6.25;;;;;;;-138.14;84.54;63448.66;4902982;28;20294;-76
2021/06/15 02:02:45;;;;;;;8.93;6.22;;;;;;;-138.14;nan;63448.66;4926441;28;20206;-76
2021/06/15 02:05:11;;;;;;;7.65;5.85;;;;;;;-138.13;100.00;77720.03;4925983;28;20605;-76
2021/06/15 02:07:41;;;;;;;7.72;6.60;;;;;;;-138.14;100.00;63448.66;4924673;28;20675;-76
2021/06/15 02:10:11;;;;;;;10.68;6.20;;;;;;;-138.14;100.00;63448.66;4938784;28;20585;-75
2021/06/15 02:12:52;;;;;;;10.73;5.93;;;;;;;-138.14;100.00;63448.66;4926367;28;20218;-75
2021/06/15 02:15:36;;;;;;;9.57;5.57;;;;;;;-138.14;100.00;63448.66;4941080;28;20680;-77
2021/06/15 02:18:24;;;;;;;8.15;5.80;;;;;;;-138.14;100.00;63448.66;4926176;28;20198;-76
2021/06/15 02:21:04;;;;;;;8.65;5.97;;;;;;;-138.14;100.00;63448.66;4920054;28;20289;-77
2021/06/15 02:23:30;;;;;;;8.10;5.85;;;;;;;-138.14;100.00;63448.66;4919076;28;20187;-76
2021/06/15 02:26:04;;;;;;;9.80;6.38;;;;;;;-138.13;51.17;-16038.06;4919437;28;20228;-76
2021/06/15 02:28:37;;;;;;;8.40;6.38;;;;;;;-138.14;100.00;63448.66;4934825;28;20198;-77
2021/06/15 02:31:05;;;;;;;7.90;5.80;;;;;;;-138.14;100.00;63448.66;4933406;28;20213;-76
2021/06/15 02:33:40;;;;;;;8.82;5.43;;;;;;;88.41;100.00;101134.78;4918604;28;20886;-77
2021/06/15 02:36:16;;;;;;;7.45;4.82;;;;;;;-138.14;100.00;63448.66;4918742;28;20197;-77
2021/06/15 02:38:56;;;;;;;8.85;5.40;;;;;;;-138.14;100.00;63448.66;4933978;28;20831;-76
2021/06/15 02:41:29;;;;;;;7.40;5.40;;;;;;;-138.14;100.00;63448.66;4933270;28;20214;-77
2021/06/15 02:43:59;;;;;;;9.07;5.30;;;;;;;17.74;100.00;101134.78;4918987;28;20282;-77
2021/06/15 02:46:29;;;;;;;9.45;5.35;;;;;;;17.33;100.00;101162.59;4935039;28;20186;-77
2021/06/15 02:48:57;;;;;;;9.85;5.50;;;;;;;-138.14;100.00;63448.66;4934138;28;20178;-77
2021/06/15 02:51:26;;;;;;;8.10;4.75;;;;;;;-138.14;100.00;63448.66;4917576;28;20265;-77
2021/06/15 02:54:08;;;;;;;8.55;4.63;;;;;;;-138.14;100.00;63448.66;4934125;28;20183;-77
2021/06/15 02:56:36;;;;;;;7.05;4.75;;;;;;;-138.14;100.00;63448.66;4920033;28;20186;-76
2021/06/15 02:59:04;;;;;;;8.45;4.97;;;;;;;-138.14;100.00;63448.66;4931761;28;20196;-76
2021/06/15 03:01:30;;;;;;;9.40;4.80;;;;;;;17.00;100.00;101200.22;4917209;28;20210;-77
2021/06/15 03:03:59;;;;;;;7.00;4.68;;;;;;;17.00;100.00;115478.06;4949111;28;20616;-76
2021/06/15 03:06:24;;;;;;;7.07;4.53;;;;;;;17.00;100.00;115478.06;4917717;28;20256;-75
2021/06/15 03:08:53;;;;;;;8.18;4.93;;;;;;;-138.13;100.00;77861.97;4930455;28;20213;-74
2021/06/15 03:11:20;;;;;;;7.68;4.53;;;;;;;-138.13;100.00;101200.22;4917500;28;20256;-75
2021/06/15 03:13:52;;;;;;;6.25;4.60;;;;;;;;;;4902529;28;20625;-75
2021/06/15 03:16:22;;;;;;;9.50;5.35;;;;;;;-138.14;100.00;63448.66;4931008;28;20242;-76
2021/06/15 03:18:58;;;;;;;7.97;4.47;;;;;;;-138.14;100.00;63448.66;4937480;28;20185;-75
2021/06/15 03:21:24;;;;;;;7.63;5.00;;;;;;;-138.14;100.00;63448.66;4951960;28;20728;-76
2021/06/15 03:23:58;;;;;;;8.57;5.57;;;;;;;-138.14;100.00;63448.66;4937673;28;20212;-76
2021/06/15 03:26:48;;;;;;;8.48;4.93;;;;;;;17.00;100.00;101200.22;4939052;28;20185;-76
2021/06/15 03:29:21;;;;;;;8.52;4.72;;;;;;;17.17;100.00;101216.16;4953344;28;20181;-75
2021/06/15 03:31:49;;;;;;;7.97;4.82;;;;;;;17.17;100.00;101216.16;4936251;28;20250;-75
2021/06/15 03:34:22;;;;;;;9.65;5.10;;;;;;;17.17;100.00;101216.16;4937837;28;20204;-76
2021/06/15 03:36:52;;;;;;;9.00;4.85;;;;;;;17.17;100.00;101216.16;4937605;28;20231;-75
2021/06/15 03:39:20;;;;;;;7.13;4.35;;;;;;;-138.14;100.00;77853.28;4920254;28;20190;-75
2021/06/15 03:41:46;;;;;;;11.77;4.57;;;;;;;;;;4916248;28;20580;-75
2021/06/15 03:44:12;;;;;;;10.52;4.25;;;;;;;;;;4948811;28;20193;-76
2021/06/15 03:46:40;;;;;;;6.63;3.65;;;;;;;-138.14;100.00;63448.66;4948817;28;20573;-75
2021/06/15 03:49:08;;;;;;;7.40;3.67;;;;;;;17.17;100.00;101216.16;4917649;28;20194;-75
2021/06/15 03:51:38;;;;;;;8.82;3.85;;;;;;;-138.14;100.00;63448.66;4947999;28;20249;-76
2021/06/15 03:54:13;;;;;;;6.78;4.03;;;;;;;-138.14;100.00;63448.66;4917537;28;20214;-75
2021/06/15 03:56:45;;;;;;;6.70;3.80;;;;;;;-138.14;100.00;63448.66;4949156;28;20206;-75
2021/06/15 03:59:14;;;;;;;10.20;4.18;;;;;;;185.41;100.00;63448.66;4932338;28;20186;-75
2021/06/15 04:01:41;;;;;;;10.32;3.58;;;;;;;-138.14;100.00;63448.66;4932503;28;20198;-75
2021/06/15 04:04:14;;;;;;;7.38;3.90;;;;;;;-138.14;100.00;63448.66;4917241;28;20197;-75
2021/06/15 04:06:44;;;;;;;7.53;3.63;;;;;;;-138.14;100.00;63448.66;4932546;28;20245;-77
2021/06/15 04:09:09;;;;;;;9.07;4.22;;;;;;;-138.14;100.00;63448.66;4917755;28;20186;-76
2021/06/15 04:11:36;;;;;;;7.25;3.50;;;;;;;-138.14;100.00;63448.66;4914235;28;20858;-75
2021/06/15 04:14:02;;;;;;;9.02;3.75;;;;;;;-138.14;100.00;63448.66;4916522;28;20798;-75
2021/06/15 04:16:27;;;;;;;9.57;3.60;;;;;;;-138.14;100.00;63448.66;4900525;28;20182;-75
2021/06/15 04:18:55;;;;;;;10.18;4.07;;;;;;;-138.14;100.00;63448.66;4916538;28;20190;-75
2021/06/15 04:21:21;;;;;;;10.18;4.43;;;;;;;-138.14;100.00;63448.66;4931924;28;20214;-74
2021/06/15 04:23:59;;;;;;;8.73;3.85;;;;;;;-138.14;100.00;63448.66;4932711;28;20187;-76
2021/06/15 04:26:25;;;;;;;9.02;3.90;;;;;;;-138.14;100.00;63448.66;4918003;28;20182;-76
2021/06/15 04:28:50;;;;;;;6.88;3.60;;;;;;;-138.14;100.00;63448.66;4916894;28;20736;-76
2021/06/15 04:31:18;;;;;;;10.57;3.80;;;;;;;-138.14;100.00;63448.66;4916225;28;20657;-75
2021/06/15 04:33:46;;;;;;;6.70;3.60;;;;;;;-138.14;100.00;63448.66;4918091;28;20264;-75
2021/06/15 04:36:14;;;;;;;6.25;3.55;;;;;;;-138.14;100.00;63448.66;4935037;28;20254;-76
2021/06/15 04:38:59;;;;;;;9.23;4.18;;;;;;;-138.14;100.00;63448.66;4935683;28;20691;-75
2021/06/15 04:41:54;;;;;;;8.90;4.03;;;;;;;-138.14;100.00;63448.66;4932963;28;20214;-76
2021/06/15 04:44:43;;;;;;;6.78;4.40;;;;;;;-138.14;100.00;63448.66;4925714;28;20194;-75
2021/06/15 04:47:21;;;;;;;10.15;3.97;;;;;;;-138.14;100.00;63448.66;4951861;28;20187;-75
2021/06/15 04:50:05;;;;;;;8.52;4.00;;;;;;;-138.14;100.00;63448.66;4952988;28;21105;-77
2021/06/15 04:52:33;;;;;;;7.40;4.25;;;;;;;-138.14;100.00;63448.66;4951720;28;20261;-77
2021/06/15 04:55:03;;;;;;;8.00;3.97;;;;;;;-138.14;100.00;63448.66;4921571;28;20253;-75
2021/06/15 04:57:35;;;;;;;8.00;4.10;;;;;;;-138.14;100.00;63448.66;4920435;28;20182;-75
2021/06/15 05:00:02;;;;;;;11.48;4.30;;;;;;;-138.14;100.00;63448.66;4935700;28;20186;-74
2021/06/15 05:02:29;;;;;;;7.50;3.92;;;;;;;-138.14;100.00;63448.66;4932425;29;20202;-75
2021/06/15 05:04:55;;;;;;;8.40;3.97;;;;;;;-138.14;100.00;63448.66;4932790;29;20182;-75
2021/06/15 05:07:22;;;;;;;9.35;4.05;;;;;;;-138.14;100.00;63448.66;4917210;28;20217;-75
2021/06/15 05:09:53;;;;;;;9.38;4.18;;;;;;;-138.14;100.00;63448.66;4935533;28;20670;-75
2021/06/15 05:12:19;;;;;;;10.50;4.95;;;;;;;-138.14;100.00;63448.66;4920101;28;20700;-75
2021/06/15 05:14:49;;;;;;;10.98;4.10;;;;;;;-138.14;100.00;63448.66;4935892;28;20210;-75
2021/06/15 05:17:23;;;;;;;9.70;4.80;;;;;;;-138.14;100.00;63448.66;4920616;28;20275;-77
2021/06/15 05:19:48;;;;;;;7.95;4.65;;;;;;;-138.14;100.00;63448.66;4919200;28;20186;-75
2021/06/15 05:22:25;;;;;;;12.05;4.57;;;;;;;-138.14;100.00;63448.66;4934771;28;20195;-76
2021/06/15 05:24:57;;;;;;;10.57;4.70;;;;;;;-138.14;100.00;63448.66;4935544;28;20847;-75
2021/06/15 05:27:28;;;;;;;8.88;4.40;;;;;;;-138.14;100.00;63448.66;4933944;28;20660;-75
2021/06/15 05:29:57;;;;;;;7.43;4.60;;;;;;;-138.14;100.00;63448.66;4919440;28;20551;-74
2021/06/15 05:32:22;;;;;;;11.27;4.35;;;;;;;-138.14;100.00;63448.66;4918989;28;20215;-74
2021/06/15 05:34:55;;;;;;;8.32;3.88;;;;;;;-138.14;100.00;63448.66;4951506;28;20653;-74
2021/06/15 05:37:24;;;;;;;8.38;4.40;;;;;;;-138.14;100.00;63448.66;4969010;28;20237;-75
2021/06/15 05:39:49;;;;;;;7.90;4.03;;;;;;;-138.14;100.00;63448.66;4934403;28;20199;-75
2021/06/15 05:42:15;;;;;;;8.20;3.88;;;;;;;-138.14;100.00;63448.66;4947825;28;20222;-75
2021/06/15 05:44:41;;;;;;;10.90;4.28;;;;;;;-138.14;100.00;63448.66;4933736;28;20222;-76
2021/06/15 05:47:11;;;;;;;8.77;3.92;;;;;;;-138.14;100.00;63448.66;4950272;28;20186;-76
2021/06/15 05:49:42;;;;;;;8.10;4.30;;;;;;;-138.14;100.00;63448.66;4919589;28;20219;-76
2021/06/15 05:52:11;;;;;;;9.50;3.83;;;;;;;-138.14;100.00;63448.66;4934654;28;20745;-76
2021/06/15 05:54:36;;;;;;;8.73;3.30;;;;;;;-138.14;100.00;63448.66;4952257;28;20189;-76
2021/06/15 05:57:02;;;;;;;8.90;3.70;;;;;;;-138.14;100.00;63448.66;4937658;28;20187;-75
2021/06/15 05:59:33;;;;;;;9.30;3.70;;;;;;;-138.14;100.00;63448.66;4971408;28;20273;-77
2021/06/15 06:02:03;;;;;;;7.20;3.40;;;;;;;-138.14;100.00;63448.66;4954429;28;20201;-76
2021/06/15 06:04:36;;;;;;;7.22;3.60;;;;;;;-138.14;100.00;63448.66;4936219;28;20190;-76
2021/06/15 06:09:45;;;;;;;6.30;3.22;;;;;;;-138.14;100.00;63448.66;4953550;28;20286;-77
2021/06/15 06:12:16;;;;;;;6.07;3.22;;;;;;;-138.14;100.00;63448.66;4917995;28;20206;-76
2021/06/15 06:14:41;;;;;;;7.22;3.47;;;;;;;-138.14;100.00;63448.66;4935027;28;20257;-77
2021/06/15 06:17:10;;;;;;;8.98;3.40;;;;;;;-138.14;100.00;63448.66;4950595;28;20661;-78
2021/06/15 06:19:44;;;;;;;5.47;2.88;;;;;;;-138.14;100.00;63448.66;4951303;28;20713;-76
2021/06/15 06:22:09;;;;;;;9.30;3.08;;;;;;;-138.14;100.00;63448.66;4918120;28;20206;-76
2021/06/15 06:24:35;;;;;;;7.60;3.10;;;;;;;-138.14;100.00;63448.66;4902430;29;20191;-77
2021/06/15 06:27:00;;;;;;;7.35;2.80;;;;;;;-138.14;100.00;63448.66;4915325;29;20253;-76
2021/06/15 06:29:30;;;;;;;7.80;2.90;;;;;;;-138.14;100.00;63448.66;4899937;29;20186;-76
2021/06/15 06:31:58;;;;;;;7.13;2.88;;;;;;;-138.14;100.00;63448.66;4942740;28;20226;-76
2021/06/15 06:34:26;;;;;;;4.82;2.58;;;;;;;-138.14;100.00;63448.66;4919191;28;20265;-77
2021/06/15 06:36:56;;;;;;;6.45;2.38;;;;;;;-138.14;100.00;63448.66;4934836;28;20186;-77
2021/06/15 06:39:21;;;;;;;5.45;2.20;;;;;;;-138.14;100.00;63448.66;4918734;28;20226;-77
2021/06/15 06:41:49;;;;;;;5.40;2.50;;;;;;;-138.14;100.00;63448.66;4917655;28;20704;-76
2021/06/15 06:44:22;;;;;;;9.32;2.80;;;;;;;-138.14;100.00;63448.66;4934703;28;20256;-77
2021/06/15 06:46:48;;;;;;;6.18;2.05;;;;;;;-138.14;100.00;63448.66;4933964;28;20191;-76
2021/06/15 06:49:15;;;;;;;6.85;3.65;;;;;;;-138.14;100.00;63448.66;4918378;28;20586;-77
2021/06/15 06:51:41;;;;;;;7.60;2.00;;;;;;;-138.14;100.00;63448.66;4916208;28;20268;-76
2021/06/15 06:54:07;;;;;;;6.43;2.38;;;;;;;-138.14;100.00;63448.66;4941291;28;20602;-77
2021/06/15 06:56:38;;;;;;;4.82;2.13;;;;;;;-138.14;100.00;63448.66;4949035;28;20705;-76
2021/06/15 06:59:06;;;;;;;4.00;2.05;;;;;;;-138.14;100.00;63448.66;4949073;28;20245;-77
2021/06/15 07:01:31;;;;;;;4.75;1.70;;;;;;;-138.14;100.00;63448.66;4928219;28;20218;-78
2021/06/15 07:03:59;;;;;;;4.28;1.67;;;;;;;-138.14;100.00;63448.66;4913159;28;20194;-76
2021/06/15 07:06:25;;;;;;;5.55;1.92;;;;;;;-138.14;100.00;63448.66;4941526;28;20221;-76
2021/06/15 07:08:50;;;;;;;7.38;2.15;;;;;;;-138.14;100.00;63448.66;4944854;28;20194;-76
2021/06/15 07:11:21;;;;;;;5.60;1.75;;;;;;;-138.14;100.00;63448.66;4898400;29;20202;-76
2021/06/15 07:13:47;;;;;;;4.75;2.30;;;;;;;-138.14;100.00;63448.66;4930622;29;20291;-75
2021/06/15 07:16:17;;;;;;;7.68;2.45;;;;;;;-138.14;100.00;63448.66;4898585;29;20211;-77
2021/06/15 07:18:47;;;;;;;8.25;2.47;;;;;;;-138.14;100.00;63448.66;4916574;29;20187;-76
2021/06/15 07:21:17;;;;;;;5.28;3.08;;;;;;;-138.14;100.00;63448.66;4914604;29;20218;-76
2021/06/15 07:23:43;;;;;;;4.30;2.85;;;;;;;-138.14;100.00;63448.66;4914397;28;20210;-75
2021/06/15 07:26:09;;;;;;;6.90;2.50;;;;;;;-138.14;100.00;63448.66;4921464;29;20674;-76
2021/06/15 07:28:34;;;;;;;4.15;2.00;;;;;;;-138.14;100.00;63448.66;4938385;28;20344;-77
2021/06/15 07:31:02;;;;;;;7.60;2.85;;;;;;;-138.14;100.00;63448.66;4922689;28;20199;-77
2021/06/15 07:33:30;;;;;;;5.13;1.98;;;;;;;-138.14;100.00;63448.66;4924800;28;20292;-76
2021/06/15 07:35:58;;;;;;;5.50;1.88;;;;;;;-138.14;100.00;63448.66;4937776;28;20207;-77
2021/06/15 07:38:26;;;;;;;5.78;2.00;;;;;;;-138.14;100.00;63448.66;4948702;28;20182;-77
2021/06/15 07:40:55;;;;;;;4.13;1.70;;;;;;;-138.14;100.00;63448.66;4923337;29;20210;-77
2021/06/15 07:43:23;;;;;;;6.18;2.03;;;;;;;-138.14;100.00;63448.66;4898711;29;20579;-77
2021/06/15 07:45:55;;;;;;;7.25;1.73;;;;;;;-138.14;100.00;63448.66;4930035;29;20584;-77
2021/06/15 07:48:21;;;;;;;6.43;2.10;;;;;;;-138.14;100.00;63448.66;4898355;29;20195;-77
2021/06/15 07:50:51;;;;;;;2.83;1.52;;;;;;;-138.14;100.00;63448.66;4897678;29;20209;-77
2021/06/15 07:53:19;;;;;;;3.97;1.58;;;;;;;-138.14;100.00;63448.66;4898556;29;20214;-78
2021/06/15 07:55:47;;;;;;;3.95;1.50;;;;;;;-138.14;100.00;63448.66;4929639;29;20187;-77
2021/06/15 07:58:13;;;;;;;5.13;1.70;;;;;;;-138.14;100.00;63448.66;4929284;29;20191;-77
2021/06/15 08:00:39;;;;;;;3.33;1.50;;;;;;;-138.14;100.00;63448.66;4921577;28;20198;-78
2021/06/15 08:03:04;;;;;;;5.85;1.60;;;;;;;-138.14;100.00;63448.66;4948406;28;20184;-76
2021/06/15 08:05:30;;;;;;;5.35;1.77;;;;;;;-138.14;100.00;63448.66;4948949;28;20654;-77
2021/06/15 08:08:00;;;;;;;6.22;2.03;;;;;;;-138.14;100.00;63448.66;4948465;28;20232;-76
2021/06/15 08:10:25;;;;;;;3.10;1.20;;;;;;;-138.14;100.00;63448.66;4932047;28;20197;-77
2021/06/15 08:12:51;;;;;;;4.22;1.38;;;;;;;-138.14;100.00;63448.66;4916657;28;20214;-77
2021/06/15 08:15:17;;;;;;;3.80;1.20;;;;;;;-138.14;100.00;63448.66;4932852;28;20194;-77
2021/06/15 08:17:45;;;;;;;2.95;1.50;;;;;;;-138.14;100.00;63448.66;4948444;28;20620;-77
2021/06/15 08:20:15;;;;;;;4.82;1.15;;;;;;;-138.14;100.00;63448.66;4935281;28;20257;-78
2021/06/15 08:22:41;;;;;;;3.00;1.05;;;;;;;-138.14;100.00;63448.66;4920514;28;20736;-76
2021/06/15 08:25:07;;;;;;;3.30;0.70;;;;;;;-138.14;100.00;63448.66;4936177;28;20194;-77
2021/06/15 08:27:36;;;;;;;2.95;0.85;;;;;;;-138.14;100.00;63448.66;4969378;28;20179;-77
2021/06/15 08:30:05;;;;;;;2.22;0.73;;;;;;;-138.14;100.00;63448.66;4935245;28;20909;-76
2021/06/15 08:32:31;;;;;;;3.75;0.93;;;;;;;-138.14;100.00;63448.66;4951741;28;20221;-78
2021/06/15 08:34:59;;;;;;;3.90;1.02;;;;;;;-138.14;100.00;63448.66;4952275;28;20258;-78
2021/06/15 08:37:27;;;;;;;1.88;0.80;;;;;;;-138.14;100.00;63448.66;4935641;28;20563;-78
2021/06/15 08:39:53;;;;;;;1.85;0.90;;;;;;;-138.14;100.00;63448.66;4951662;28;20190;-77
2021/06/15 08:42:18;;;;;;;2.13;0.90;;;;;;;-138.14;100.00;63448.66;4935807;28;20198;-76
2021/06/15 08:44:46;;;;;;;2.88;1.00;;;;;;;-138.14;100.00;63448.66;4921012;28;20194;-77
2021/06/15 08:47:17;;;;;;;3.13;0.90;;;;;;;-138.14;100.00;63448.66;4937027;28;20175;-78
2021/06/15 08:49:43;;;;;;;6.45;1.30;;;;;;;-138.14;100.00;63448.66;4939040;28;20186;-76
2021/06/15 08:52:14;;;;;;;1.45;0.70;;;;;;;-138.14;100.00;63448.66;4937308;28;20265;-75
2021/06/15 08:54:39;;;;;;;2.80;1.10;;;;;;;-138.14;100.00;63448.66;4920102;28;20233;-75
2021/06/15 08:57:07;;;;;;;1.83;0.70;;;;;;;-138.14;100.00;63448.66;4937900;28;20179;-76
2021/06/15 08:59:36;;;;;;;2.22;0.90;;;;;;;-138.14;100.00;63448.66;4920038;28;20197;-76
2021/06/15 09:02:05;;;;;;;3.22;0.82;;;;;;;-138.14;100.00;63448.66;4922707;28;20195;-76
2021/06/15 09:04:32;;;;;;;1.55;0.85;;;;;;;-138.14;100.00;63448.66;4920488;28;20194;-77
2021/06/15 09:07:00;;;;;;;2.65;0.70;;;;;;;-138.14;100.00;63448.66;4919635;28;20213;-76
2021/06/15 09:09:42;;;;;;;4.05;1.00;;;;;;;-138.14;100.00;63448.66;4935783;28;20256;-78
2021/06/15 09:12:19;;;;;;;3.10;1.30;;;;;;;-138.14;100.00;63448.66;4918704;28;20717;-76
2021/06/15 09:14:55;;;;;;;3.80;1.00;;;;;;;-138.14;100.00;63448.66;4936495;28;20192;-76
2021/06/15 09:17:29;;;;;;;1.42;0.80;;;;;;;-138.14;100.00;63448.66;4904336;28;20335;-76
2021/06/15 09:20:00;;;;;;;3.17;1.20;;;;;;;-138.14;100.00;63448.66;4967931;28;20198;-76
2021/06/15 09:22:35;;;;;;;3.10;0.85;;;;;;;-138.14;100.00;63448.66;4919639;28;20718;-76
2021/06/15 09:25:01;;;;;;;2.05;0.75;;;;;;;-138.14;100.00;63448.66;4924578;29;20183;-76
2021/06/15 09:27:31;;;;;;;2.97;1.23;;;;;;;-138.14;100.00;63448.66;4916926;29;20179;-76
2021/06/15 09:30:00;;;;;;;3.97;1.02;;;;;;;-138.14;100.00;63448.66;4902685;28;20190;-76
2021/06/15 09:32:36;;;;;;;1.15;0.70;;;;;;;-138.14;100.00;63448.66;4934701;28;20242;-76
2021/06/15 09:35:14;;;;;;;1.98;1.17;;;;;;;-138.14;100.00;63448.66;4932040;29;20798;-77
2021/06/15 09:37:55;;;;;;;2.88;0.80;;;;;;;-138.14;100.00;63448.66;4948899;29;20270;-76
2021/06/15 09:40:24;;;;;;;2.47;0.90;;;;;;;-138.14;100.00;63448.66;4930866;29;20191;-75
2021/06/15 09:43:09;;;;;;;2.90;0.98;;;;;;;-138.14;100.00;63448.66;4931905;29;20174;-75
2021/06/15 09:45:40;;;;;;;2.25;1.15;;;;;;;-138.14;100.00;63448.66;4934217;28;20182;-75
2021/06/15 09:48:24;;;;;;;2.95;0.80;;;;;;;-138.14;100.00;63448.66;4919170;28;20193;-76
2021/06/15 09:50:56;;;;;;;3.10;0.80;;;;;;;-138.14;100.00;63448.66;4950101;28;20210;-76
2021/06/15 09:53:29;;;;;;;3.13;0.80;;;;;;;-138.14;100.00;63448.66;4935348;28;20307;-76
2021/06/15 09:56:04;;;;;;;3.25;0.90;;;;;;;-138.14;100.00;63448.66;4933377;29;20753;-76
2021/06/15 09:58:55;;;;;;;2.40;1.00;;;;;;;-138.14;100.00;63448.66;4932920;29;20278;-76
2021/06/15 10:01:23;;;;;;;1.45;0.98;;;;;;;-138.14;100.00;63448.66;4913959;28;20206;-77
2021/06/15 10:04:14;;;;;;;2.53;0.90;;;;;;;-138.14;100.00;63448.66;4967544;28;20175;-78
2021/06/15 10:06:49;;;;;;;1.98;1.10;;;;;;;-138.14;100.00;63448.66;4935046;28;20202;-77
2021/06/15 10:09:29;;;;;;;2.35;0.85;;;;;;;-138.14;100.00;63448.66;4935900;28;20190;-76
2021/06/15 10:12:17;;;;;;;3.08;1.55;;;;;;;-138.14;100.00;63448.66;4907631;28;20289;-76
2021/06/15 10:14:43;;;;;;;5.22;2.28;;;;;;;-138.14;100.00;63448.66;4931326;28;20183;-76
2021/06/15 10:17:13;;;;;;;5.30;2.50;;;;;;;-138.14;100.00;63448.66;4923749;28;20233;-76
2021/06/15 10:19:44;;;;;;;4.20;1.13;;;;;;;-138.14;100.00;63448.66;4927373;28;20183;-75
2021/06/15 10:22:11;;;;;;;2.70;1.00;;;;;;;-138.14;100.00;63448.66;4906700;28;20205;-76
2021/06/15 10:24:39;;;;;;;3.08;1.10;;;;;;;-138.14;100.00;63448.66;4904060;28;20186;-76
2021/06/15 10:27:12;;;;;;;3.25;0.88;;;;;;;-138.14;100.00;63448.66;4933855;28;20186;-78
2021/06/15 10:29:42;;;;;;;2.78;0.85;;;;;;;-138.14;100.00;63448.66;4935121;28;20182;-78
2021/06/15 10:32:24;;;;;;;3.65;1.00;;;;;;;-138.14;100.00;63448.66;4948100;28;20293;-78
2021/06/15 10:34:54;;;;;;;4.15;0.90;;;;;;;-138.14;100.00;63448.66;4951833;28;20190;-78
2021/06/15 10:37:36;;;;;;;3.03;1.00;;;;;;;-138.14;100.00;63448.66;4918373;28;20289;-78
2021/06/15 10:40:06;;;;;;;1.95;0.75;;;;;;;-138.14;100.00;63448.66;4949522;28;20265;-78
2021/06/15 10:42:33;;;;;;;2.70;1.05;;;;;;;-138.14;100.00;63448.66;4949132;28;20213;-79
2021/06/15 10:45:11;;;;;;;3.28;0.75;;;;;;;-138.14;100.00;63448.66;4935132;28;20193;-78
2021/06/15 10:47:38;;;;;;;3.28;0.90;;;;;;;-138.14;100.00;63448.66;4950031;28;20186;-78
2021/06/15 10:50:07;;;;;;;3.05;0.95;;;;;;;-138.14;100.00;63448.66;4917383;28;20193;-78
2021/06/15 10:53:11;;;;;;;1.50;0.80;;;;;;;-138.14;100.00;63448.66;4935034;28;20310;-77
2021/06/15 10:55:53;;;;;;;2.78;0.80;;;;;;;-138.14;100.00;63448.66;4919410;28;20210;-77
2021/06/15 10:58:44;;;;;;;2.90;1.00;;;;;;;-138.14;100.00;63448.66;4949840;28;20256;-77
2021/06/15 11:01:19;;;;;;;2.88;0.90;;;;;;;-138.14;100.00;63448.66;4964335;28;20725;-79
2021/06/15 11:03:50;;;;;;;2.17;0.80;;;;;;;-138.14;100.00;63448.66;4949768;28;20196;-76
2021/06/15 11:06:36;;;;;;;1.95;0.88;;;;;;;-138.14;100.00;63448.66;4931559;28;20215;-77
2021/06/15 11:09:24;;;;;;;3.88;1.00;;;;;;;-138.14;100.00;63448.66;4914358;29;20194;-77
2021/06/15 11:12:01;;;;;;;3.25;1.00;;;;;;;-138.14;100.00;63448.66;4913923;29;20211;-77
2021/06/15 11:14:27;;;;;;;3.20;1.02;;;;;;;-138.14;100.00;63448.66;4916464;29;20186;-78
2021/06/15 11:16:56;;;;;;;2.47;0.93;;;;;;;-138.14;100.00;63448.66;4931548;29;20191;-79
2021/06/15 11:19:21;;;;;;;4.35;1.10;;;;;;;-138.14;100.00;63448.66;4917295;29;20183;-77
2021/06/15 11:21:53;;;;;;;3.38;1.10;;;;;;;-138.14;100.00;63448.66;4943792;28;20605;-79
2021/06/15 11:24:20;;;;;;;2.38;1.05;;;;;;;-138.14;100.00;63448.66;4921274;29;20219;-80
2021/06/15 11:26:47;;;;;;;2.50;0.90;;;;;;;-138.14;100.00;63448.66;4941291;28;20658;-78
2021/06/15 11:29:38;;;;;;;2.63;1.08;;;;;;;-138.14;100.00;63448.66;4936625;28;20261;-78
2021/06/15 11:32:16;;;;;;;2.88;0.98;;;;;;;-138.14;100.00;63448.66;4936787;28;20268;-79
2021/06/15 11:34:58;;;;;;;2.70;1.00;;;;;;;-138.14;100.00;63448.66;4952313;28;20197;-78
2021/06/15 11:37:37;;;;;;;2.45;0.98;;;;;;;-138.14;100.00;63448.66;4948252;28;20190;-78
2021/06/15 11:40:18;;;;;;;2.22;0.98;;;;;;;-138.14;100.00;63448.66;4938365;28;20232;-78
2021/06/15 11:42:54;;;;;;;2.50;0.98;;;;;;;-138.14;100.00;63448.66;4935411;28;20198;-78
2021/06/15 11:45:25;;;;;;;2.35;0.75;;;;;;;-138.14;100.00;63448.66;4931501;29;20175;-78
2021/06/15 11:47:55;;;;;;;2.78;0.90;;;;;;;-138.14;100.00;63448.66;4948963;29;20187;-78
2021/06/15 11:50:33;;;;;;;3.33;0.95;;;;;;;-138.14;100.00;63448.66;4885677;29;20183;-78